createdAt,value
2022-08-03T00:00:27.034Z,100814.84
2022-08-03T00:02:54.130Z,100818.56
2022-08-03T00:05:21.017Z,100795.00
2022-08-03T00:07:48.585Z,100809.31
2022-08-03T00:10:16.614Z,100799.16
2022-08-03T00:12:43.152Z,100810.53
2022-08-03T00:15:14.994Z,100787.81
2022-08-03T00:17:53.387Z,100803.13
2022-08-03T00:20:24.242Z,100806.03
2022-08-03T00:22:51.456Z,100797.44
2022-08-03T00:25:18.074Z,100759.34
2022-08-03T00:27:44.637Z,100793.03
2022-08-03T00:30:11.453Z,100795.63
2022-08-03T00:32:40.031Z,100791.47
2022-08-03T00:35:18.072Z,100790.63
2022-08-03T00:37:58.816Z,100793.97
2022-08-03T00:40:25.467Z,100763.66
2022-08-03T00:42:59.835Z,100786.81
2022-08-03T00:45:31.290Z,100779.13
2022-08-03T00:47:58.247Z,100750.75
2022-08-03T00:50:28.179Z,100785.59
2022-08-03T00:52:56.960Z,100745.09
2022-08-03T00:55:24.333Z,100757.66
2022-08-03T00:57:51.382Z,100785.13
2022-08-03T01:00:23.386Z,100784.53
2022-08-03T01:02:50.164Z,100782.22
2022-08-03T01:05:16.828Z,100779.75
2022-08-03T01:07:50.143Z,100777.22
2022-08-03T01:10:22.746Z,100780.16
2022-08-03T01:13:01.933Z,100765.50
2022-08-03T01:15:44.427Z,100776.59
2022-08-03T01:18:26.253Z,100769.19
2022-08-03T01:20:56.447Z,100772.13
2022-08-03T01:23:34.595Z,100741.56
2022-08-03T01:26:13.206Z,100773.94
2022-08-03T01:28:54.857Z,100775.56
2022-08-03T01:31:25.888Z,100759.06
2022-08-03T01:33:57.660Z,100774.19
2022-08-03T01:36:28.945Z,100762.50
2022-08-03T01:39:05.122Z,100734.00
2022-08-03T01:41:36.978Z,100769.88
2022-08-03T01:44:29.966Z,100737.34
2022-08-03T01:46:53.420Z,100752.59
2022-08-03T01:49:20.067Z,100762.88
2022-08-03T01:51:57.975Z,100737.44
2022-08-03T01:54:35.441Z,100718.44
2022-08-03T01:57:02.738Z,100721.06
2022-08-03T01:59:30.728Z,100759.84
2022-08-03T02:02:15.941Z,100754.34
2022-08-03T02:04:45.550Z,100723.88
2022-08-03T02:07:12.674Z,100757.84
2022-08-03T02:09:40.323Z,100753.97
2022-08-03T02:12:11.228Z,100745.63
2022-08-03T02:14:39.761Z,100764.94
2022-08-03T02:17:10.035Z,100749.94
2022-08-03T02:19:37.290Z,100760.69
2022-08-03T02:22:05.151Z,100753.81
2022-08-03T02:24:32.107Z,100754.81
2022-08-03T02:27:00.041Z,100736.00
2022-08-03T02:29:39.629Z,100762.78
2022-08-03T02:32:10.336Z,100760.69
2022-08-03T02:34:37.719Z,100730.16
2022-08-03T02:37:04.669Z,100721.03
2022-08-03T02:39:33.479Z,100748.88
2022-08-03T02:42:03.574Z,100763.34
2022-08-03T02:44:32.682Z,100764.16
2022-08-03T02:47:03.717Z,100759.31
2022-08-03T02:49:40.583Z,100713.03
2022-08-03T02:52:19.016Z,100749.94
2022-08-03T02:54:46.628Z,100730.41
2022-08-03T02:57:13.969Z,100755.16
2022-08-03T02:59:41.107Z,100731.34
2022-08-03T03:02:07.914Z,100752.53
2022-08-03T03:04:35.319Z,100751.94
2022-08-03T03:07:04.360Z,100749.88
2022-08-03T03:09:40.326Z,100754.25
2022-08-03T03:12:10.835Z,100753.16
2022-08-03T03:14:38.307Z,100748.06
2022-08-03T03:17:06.944Z,100757.41
2022-08-03T03:19:34.058Z,100750.50
2022-08-03T03:22:01.603Z,100742.16
2022-08-03T03:24:29.332Z,100756.41
2022-08-03T03:26:56.758Z,100758.25
2022-08-03T03:29:23.789Z,100748.34
2022-08-03T03:31:50.427Z,100750.41
2022-08-03T03:34:17.206Z,100755.66
2022-08-03T03:36:43.747Z,100755.09
2022-08-03T03:39:15.492Z,100731.88
2022-08-03T03:41:42.878Z,100759.91
2022-08-03T03:44:09.589Z,100755.66
2022-08-03T03:46:36.325Z,100751.81
2022-08-03T03:49:02.970Z,100755.34
2022-08-03T03:51:29.592Z,100727.59
2022-08-03T03:54:00.636Z,100742.41
2022-08-03T03:56:27.458Z,100718.47
2022-08-03T03:58:54.077Z,100754.38
2022-08-03T04:01:20.923Z,100742.41
2022-08-03T04:03:47.474Z,100751.91
2022-08-03T04:06:32.813Z,100748.72
2022-08-03T04:09:19.088Z,100759.34
2022-08-03T04:11:54.037Z,100740.19
2022-08-03T04:14:30.290Z,100756.81
2022-08-03T04:17:04.280Z,100716.00
2022-08-03T04:19:34.559Z,100691.97
2022-08-03T04:22:03.813Z,100754.47
2022-08-03T04:24:36.716Z,100761.94
2022-08-03T04:27:08.460Z,100715.81
2022-08-03T04:29:38.703Z,100762.94
2022-08-03T04:32:15.290Z,100714.59
2022-08-03T04:34:42.123Z,100719.66
2022-08-03T04:37:15.181Z,100765.00
2022-08-03T04:39:43.084Z,100728.63
2022-08-03T04:42:12.006Z,100734.34
2022-08-03T04:44:41.999Z,100764.75
2022-08-03T04:47:08.749Z,100768.06
2022-08-03T04:49:37.595Z,100775.09
2022-08-03T04:52:05.692Z,100770.75
2022-08-03T04:54:39.557Z,100748.63
2022-08-03T04:57:06.114Z,100714.16
2022-08-03T04:59:32.836Z,100771.56
2022-08-03T05:01:59.458Z,100776.13
2022-08-03T05:04:26.095Z,100768.22
2022-08-03T05:06:54.930Z,100769.81
2022-08-03T05:09:45.959Z,100771.16
2022-08-03T05:12:09.642Z,100770.16
2022-08-03T05:14:38.327Z,100777.31
2022-08-03T05:17:05.842Z,100771.31
2022-08-03T05:19:32.709Z,100767.38
2022-08-03T05:21:59.416Z,100749.78
2022-08-03T05:24:26.068Z,100768.16
2022-08-03T05:26:52.619Z,100764.41
2022-08-03T05:29:19.312Z,100736.84
2022-08-03T05:31:45.881Z,100764.81
2022-08-03T05:34:12.395Z,100779.00
2022-08-03T05:36:39.637Z,100771.31
2022-08-03T05:39:06.389Z,100768.22
2022-08-03T05:41:37.145Z,100766.56
2022-08-03T05:44:04.486Z,100765.91
2022-08-03T05:46:31.265Z,100665.56
2022-08-03T05:48:57.894Z,100766.13
2022-08-03T05:51:24.447Z,100743.16
2022-08-03T05:53:51.024Z,100772.41
2022-08-03T05:56:17.663Z,100756.50
2022-08-03T05:58:45.974Z,100787.75
2022-08-03T06:01:12.861Z,100778.22
2022-08-03T06:03:39.604Z,100770.28
2022-08-03T06:06:06.263Z,100783.31
2022-08-03T06:08:33.001Z,100783.16
2022-08-03T06:10:59.746Z,100783.50
2022-08-03T06:13:26.316Z,100775.28
2022-08-03T06:15:52.899Z,100763.63
2022-08-03T06:18:19.953Z,100748.91
2022-08-03T06:20:47.221Z,100780.03
2022-08-03T06:23:54.157Z,100782.25
2022-08-03T06:26:13.520Z,100786.75
2022-08-03T06:28:52.406Z,100780.38
2022-08-03T06:31:26.003Z,100749.38
2022-08-03T06:34:34.506Z,100784.31
2022-08-03T06:36:48.501Z,100782.94
2022-08-03T06:39:15.097Z,100775.88
2022-08-03T06:41:44.858Z,100756.19
2022-08-03T06:44:12.111Z,100733.78
2022-08-03T06:46:38.924Z,100778.13
2022-08-03T06:49:06.995Z,100781.84
2022-08-03T06:52:03.132Z,100779.09
2022-08-03T06:54:22.232Z,100749.06
2022-08-03T06:56:48.843Z,100784.03
2022-08-03T07:00:10.527Z,100746.16
2022-08-03T07:02:02.207Z,100788.47
2022-08-03T07:04:28.779Z,100783.34
2022-08-03T07:06:55.362Z,100777.59
2022-08-03T07:09:22.496Z,100767.94
2022-08-03T07:11:49.171Z,100743.47
2022-08-03T07:14:15.702Z,100798.22
2022-08-03T07:16:42.249Z,100771.53
2022-08-03T07:19:08.840Z,100798.69
2022-08-03T07:21:35.370Z,100775.94
2022-08-03T07:24:01.938Z,100797.84
2022-08-03T07:26:28.511Z,100772.06
2022-08-03T07:28:55.112Z,100780.03
2022-08-03T07:31:21.631Z,100779.63
2022-08-03T07:33:48.265Z,100790.41
2022-08-03T07:36:14.835Z,100799.31
2022-08-03T07:38:41.423Z,100790.63
2022-08-03T07:41:07.915Z,100767.72
2022-08-03T07:43:34.434Z,100790.69
2022-08-03T07:46:00.990Z,100774.47
2022-08-03T07:48:27.468Z,100755.81
2022-08-03T07:50:53.969Z,100797.78
2022-08-03T07:53:20.549Z,100789.28
2022-08-03T07:55:47.113Z,100792.19
2022-08-03T07:58:22.010Z,100801.28
2022-08-03T08:00:53.044Z,100791.72
2022-08-03T08:03:21.765Z,100775.31
2022-08-03T08:05:48.960Z,100785.75
2022-08-03T08:08:15.522Z,100786.47
2022-08-03T08:10:42.281Z,100803.94
2022-08-03T08:13:24.697Z,100784.72
2022-08-03T08:15:51.239Z,100789.94
2022-08-03T08:18:18.441Z,100779.34
2022-08-03T08:20:45.050Z,100787.69
2022-08-03T08:23:41.684Z,100756.03
2022-08-03T08:25:58.551Z,100765.44
2022-08-03T08:28:32.620Z,100790.78
2022-08-03T08:31:00.906Z,100784.78
2022-08-03T08:33:42.058Z,100782.59
2022-08-03T08:36:15.554Z,100760.13
2022-08-03T08:38:44.480Z,100764.69
2022-08-03T08:41:12.020Z,100780.09
2022-08-03T08:43:38.898Z,100782.44
2022-08-03T08:46:08.235Z,100747.66
2022-08-03T08:48:36.291Z,100780.94
2022-08-03T08:51:03.956Z,100786.69
2022-08-03T08:53:33.099Z,100773.44
2022-08-03T08:56:01.222Z,100788.94
2022-08-03T08:58:37.280Z,100784.53
2022-08-03T09:01:05.475Z,100746.72
2022-08-03T09:03:34.350Z,100766.91
2022-08-03T09:06:02.228Z,100771.56
2022-08-03T09:08:30.565Z,100769.13
2022-08-03T09:10:57.266Z,100796.75
2022-08-03T09:13:24.063Z,100754.47
2022-08-03T09:16:09.916Z,100748.69
2022-08-03T09:18:36.797Z,100742.06
2022-08-03T09:21:37.281Z,100776.22
2022-08-03T09:24:08.477Z,100769.94
2022-08-03T09:26:39.778Z,100776.78
2022-08-03T09:29:15.423Z,100769.38
2022-08-03T09:31:45.353Z,100774.78
2022-08-03T09:34:17.669Z,100751.53
2022-08-03T09:36:47.882Z,100750.06
2022-08-03T09:39:40.361Z,100753.72
2022-08-03T09:42:18.707Z,100750.38
2022-08-03T09:44:51.535Z,100755.75
2022-08-03T09:47:29.668Z,100751.28
2022-08-03T09:49:58.812Z,100746.41
2022-08-03T09:52:49.317Z,100747.97
2022-08-03T09:56:31.633Z,100735.66
2022-08-03T09:58:10.188Z,100739.09
2022-08-03T10:00:59.026Z,100751.50
2022-08-03T10:03:29.051Z,100747.09
2022-08-03T10:05:59.537Z,100745.81
2022-08-03T10:08:26.823Z,100752.84
2022-08-03T10:10:58.476Z,100756.22
2022-08-03T10:13:25.175Z,100748.00
2022-08-03T10:16:24.944Z,100746.91
2022-08-03T10:18:38.347Z,100724.69
2022-08-03T10:21:08.883Z,100725.75
2022-08-03T10:23:36.758Z,100746.69
2022-08-03T10:26:05.517Z,100742.31
2022-08-03T10:28:38.309Z,100737.75
2022-08-03T10:31:07.787Z,100709.81
2022-08-03T10:33:49.483Z,100731.38
2022-08-03T10:36:17.305Z,100714.03
2022-08-03T10:38:47.726Z,100727.91
2022-08-03T10:41:16.212Z,100720.63
2022-08-03T10:43:49.563Z,100701.91
2022-08-03T10:46:18.251Z,100719.34
2022-08-03T10:48:45.285Z,100719.34
2022-08-03T10:51:12.388Z,100701.53
2022-08-03T10:53:44.044Z,100711.84
2022-08-03T10:56:51.821Z,100700.72
2022-08-03T10:59:27.764Z,100698.44
2022-08-03T11:01:59.902Z,100699.06
2022-08-03T11:04:29.812Z,100701.00
2022-08-03T11:07:26.251Z,100691.75
2022-08-03T11:09:56.586Z,100689.81
2022-08-03T11:12:32.395Z,100689.41
2022-08-03T11:15:07.723Z,100688.25
2022-08-03T11:17:45.802Z,100684.91
2022-08-03T11:20:13.655Z,100698.63
2022-08-03T11:22:54.509Z,100683.03
2022-08-03T11:25:53.686Z,100663.84
2022-08-03T11:28:28.461Z,100683.47
2022-08-03T11:30:55.097Z,100682.81
2022-08-03T11:33:31.508Z,100684.44
2022-08-03T11:36:00.158Z,100679.41
2022-08-03T11:38:26.705Z,100685.69
2022-08-03T11:40:54.064Z,100683.41
2022-08-03T11:43:26.747Z,100681.00
2022-08-03T11:46:29.601Z,100685.88
2022-08-03T11:49:09.474Z,100679.13
2022-08-03T11:51:38.737Z,100685.31
2022-08-03T11:54:07.671Z,100682.50
2022-08-03T11:56:48.637Z,100676.81
2022-08-03T11:59:21.575Z,100675.00
2022-08-03T12:01:49.012Z,100682.84
2022-08-03T12:04:16.311Z,100687.72
2022-08-03T12:06:58.638Z,100667.91
2022-08-03T12:09:25.173Z,100679.88
2022-08-03T12:11:59.898Z,100682.25
2022-08-03T12:14:49.770Z,100682.88
2022-08-03T12:17:16.107Z,100691.19
2022-08-03T12:19:43.655Z,100688.88
2022-08-03T12:22:10.241Z,100686.19
2022-08-03T12:24:42.405Z,100659.66
2022-08-03T12:27:09.216Z,100639.47
2022-08-03T12:29:36.180Z,100667.00
2022-08-03T12:32:02.778Z,100639.13
2022-08-03T12:34:47.412Z,100676.66
2022-08-03T12:37:21.762Z,100655.09
2022-08-03T12:40:00.648Z,100676.13
2022-08-03T12:42:37.048Z,100671.41
2022-08-03T12:45:22.891Z,100568.53
2022-08-03T12:48:00.225Z,100675.63
2022-08-03T12:50:31.569Z,100672.34
2022-08-03T12:52:59.633Z,100651.63
2022-08-03T12:55:40.083Z,100670.97
2022-08-03T12:58:34.652Z,100679.59
2022-08-03T13:01:05.022Z,100659.06
2022-08-03T13:03:50.315Z,100677.84
2022-08-03T13:06:24.777Z,100675.72
2022-08-03T13:09:11.551Z,100656.16
2022-08-03T13:11:55.658Z,100675.19
2022-08-03T13:14:24.823Z,100639.81
2022-08-03T13:16:52.019Z,100629.06
2022-08-03T13:19:18.709Z,100665.34
2022-08-03T13:22:01.977Z,100669.81
2022-08-03T13:24:31.914Z,100669.91
2022-08-03T13:26:59.589Z,100666.31
2022-08-03T13:29:26.219Z,100666.06
2022-08-03T13:31:52.855Z,100646.19
2022-08-03T13:34:22.930Z,100642.28
2022-08-03T13:39:57.545Z,100653.22
2022-08-03T13:42:25.663Z,100655.38
2022-08-03T13:44:52.426Z,100658.66
2022-08-03T13:47:19.601Z,100616.66
2022-08-03T13:50:00.002Z,100621.72
2022-08-03T13:52:30.357Z,100659.28
2022-08-03T13:54:56.919Z,100623.38
2022-08-03T13:58:03.969Z,100654.59
2022-08-03T14:00:10.951Z,100641.50
2022-08-03T14:02:38.234Z,100642.63
2022-08-03T14:05:05.228Z,100641.13
2022-08-03T14:07:31.853Z,100644.16
2022-08-03T14:09:58.377Z,100600.53
2022-08-03T14:12:24.929Z,100637.53
2022-08-03T14:14:51.449Z,100635.75
2022-08-03T14:17:18.422Z,100624.28
2022-08-03T14:19:52.611Z,100632.72
2022-08-03T14:22:21.023Z,100620.97
2022-08-03T14:24:47.667Z,100593.03
2022-08-03T14:27:15.894Z,100633.00
2022-08-03T14:29:42.448Z,100599.16
2022-08-03T14:32:11.424Z,100601.53
2022-08-03T14:34:39.594Z,100618.59
2022-08-03T14:37:06.183Z,100621.53
2022-08-03T14:42:20.421Z,100600.41
2022-08-03T14:44:47.466Z,100619.78
2022-08-03T14:47:14.530Z,100616.09
2022-08-03T14:50:30.779Z,100619.16
2022-08-03T14:52:28.004Z,100594.16
2022-08-03T14:54:54.583Z,100612.13
2022-08-03T14:57:21.471Z,100580.91
2022-08-03T14:59:55.902Z,100612.94
2022-08-03T15:02:24.796Z,100585.09
2022-08-03T15:04:52.083Z,100559.75
2022-08-03T15:07:19.196Z,100603.66
2022-08-03T15:09:46.080Z,100585.56
2022-08-03T15:12:12.639Z,100601.63
2022-08-03T15:14:39.270Z,100596.56
2022-08-03T15:17:06.381Z,100577.13
2022-08-03T15:20:01.171Z,100576.38
2022-08-03T15:22:20.657Z,100594.09
2022-08-03T15:24:51.301Z,100571.13
2022-08-03T15:27:18.006Z,100590.06
2022-08-03T15:30:05.357Z,100565.25
2022-08-03T15:32:31.273Z,100556.75
2022-08-03T15:34:57.776Z,100591.94
2022-08-03T15:37:25.809Z,100562.63
2022-08-03T15:39:58.902Z,100568.66
2022-08-03T15:42:28.495Z,100561.41
2022-08-03T15:44:55.139Z,100558.81
2022-08-03T15:47:21.949Z,100574.72
2022-08-03T15:49:48.693Z,100565.47
2022-08-03T15:52:15.436Z,100566.50
2022-08-03T15:54:42.013Z,100578.53
2022-08-03T15:57:08.560Z,100557.00
2022-08-03T15:59:35.114Z,100576.00
2022-08-03T16:02:01.868Z,100560.56
2022-08-03T16:04:28.629Z,100579.44
2022-08-03T16:06:55.166Z,100577.81
2022-08-03T16:09:23.386Z,100568.25
2022-08-03T16:12:15.913Z,100548.09
2022-08-03T16:14:54.152Z,100577.69
2022-08-03T16:17:21.913Z,100557.09
2022-08-03T16:19:48.863Z,100551.69
2022-08-03T16:22:17.433Z,100568.19
2022-08-03T16:24:46.968Z,100569.72
2022-08-03T16:27:17.495Z,100556.63
2022-08-03T16:30:00.133Z,100569.59
2022-08-03T16:32:26.950Z,100565.34
2022-08-03T16:34:53.448Z,100568.84
2022-08-03T16:37:38.129Z,100563.03
2022-08-03T16:40:08.860Z,100572.66
2022-08-03T16:42:44.303Z,100571.16
2022-08-03T16:45:11.114Z,100566.25
2022-08-03T16:47:37.717Z,100562.97
2022-08-03T16:50:13.982Z,100548.88
2022-08-03T16:52:47.187Z,100547.28
2022-08-03T16:55:15.567Z,100550.53
2022-08-03T16:57:58.321Z,100550.88
2022-08-03T17:00:32.916Z,100561.16
2022-08-03T17:03:04.112Z,100535.50
2022-08-03T17:05:43.621Z,100540.09
2022-08-03T17:08:13.505Z,100528.88
2022-08-03T17:10:42.510Z,100551.19
2022-08-03T17:13:21.516Z,100555.47
2022-08-03T17:15:58.319Z,100534.72
2022-08-03T17:18:32.448Z,100545.38
2022-08-03T17:21:03.263Z,100533.53
2022-08-03T17:23:46.328Z,100549.91
2022-08-03T17:26:21.070Z,100539.09
2022-08-03T17:28:57.463Z,100557.00
2022-08-03T17:31:31.332Z,100559.53
2022-08-03T17:34:01.306Z,100551.78
2022-08-03T17:36:47.623Z,100559.47
2022-08-03T17:39:16.671Z,100555.09
2022-08-03T17:41:49.844Z,100554.53
2022-08-03T17:44:35.219Z,100533.81
2022-08-03T17:47:06.691Z,100546.13
2022-08-03T17:49:40.032Z,100534.78
2022-08-03T17:52:17.847Z,100520.97
2022-08-03T17:55:55.379Z,100562.03
2022-08-03T17:58:01.578Z,100524.31
2022-08-03T18:00:55.741Z,100568.31
2022-08-03T18:03:57.051Z,100568.91
2022-08-03T18:06:28.873Z,100564.47
2022-08-03T18:08:59.980Z,100569.97
2022-08-03T18:11:35.710Z,100568.88
2022-08-03T18:14:24.096Z,100544.69
2022-08-03T18:17:05.284Z,100562.03
2022-08-03T18:20:01.918Z,100519.63
2022-08-03T18:22:28.186Z,100561.22
2022-08-03T18:24:58.649Z,100557.31
2022-08-03T18:27:42.600Z,100538.59
2022-08-03T18:30:11.992Z,100528.16
2022-08-03T18:32:38.666Z,100555.13
2022-08-03T18:35:06.237Z,100533.94
2022-08-03T18:37:51.965Z,100551.81
2022-08-03T18:40:20.921Z,100538.06
2022-08-03T18:42:52.938Z,100549.84
2022-08-03T18:45:57.628Z,100567.44
2022-08-03T18:48:21.523Z,100564.38
2022-08-03T18:50:58.713Z,100567.91
2022-08-03T18:54:03.317Z,100578.78
2022-08-03T18:56:49.635Z,100560.47
2022-08-03T18:59:30.613Z,100585.00
2022-08-03T19:02:04.002Z,100562.97
2022-08-03T19:04:54.928Z,100543.41
2022-08-03T19:07:27.049Z,100579.47
2022-08-03T19:10:04.742Z,100559.28
2022-08-03T19:12:46.068Z,100575.41
2022-08-03T19:18:07.351Z,100583.28
2022-08-03T19:20:37.771Z,100587.59
2022-08-03T19:23:04.392Z,100531.03
2022-08-03T19:25:38.012Z,100565.25
2022-08-03T19:28:06.176Z,100580.59
2022-08-03T19:30:39.732Z,100587.56
2022-08-03T19:33:10.531Z,100600.59
2022-08-03T19:35:55.420Z,100605.53
2022-08-03T19:38:28.167Z,100581.72
2022-08-03T19:41:02.472Z,100601.81
2022-08-03T19:43:49.318Z,100603.91
2022-08-03T19:46:30.506Z,100585.13
2022-08-03T19:49:16.444Z,100600.69
2022-08-03T19:51:58.487Z,100608.66
2022-08-03T19:54:53.357Z,100607.31
2022-08-03T19:57:23.951Z,100610.78
2022-08-03T19:59:52.907Z,100601.66
2022-08-03T20:02:26.540Z,100584.72
2022-08-03T20:04:53.977Z,100589.81
2022-08-03T20:07:22.738Z,100605.22
2022-08-03T20:09:54.590Z,100596.25
2022-08-03T20:12:27.581Z,100585.03
2022-08-03T20:14:58.881Z,100618.56
2022-08-03T20:17:55.367Z,100617.63
2022-08-03T20:20:13.600Z,100607.09
2022-08-03T20:22:46.183Z,100607.97
2022-08-03T20:25:13.347Z,100600.59
2022-08-03T20:28:07.108Z,100619.09
2022-08-03T20:30:35.340Z,100616.25
2022-08-03T20:33:02.082Z,100597.72
2022-08-03T20:35:30.255Z,100616.09
2022-08-03T20:37:57.884Z,100622.81
2022-08-03T20:40:27.398Z,100587.72
2022-08-03T20:42:55.496Z,100632.97
2022-08-03T20:46:01.009Z,100587.59
2022-08-03T20:48:09.839Z,100601.03
2022-08-03T20:50:38.434Z,100604.59
2022-08-03T20:53:06.687Z,100629.28
2022-08-03T20:55:48.194Z,100632.72
2022-08-03T20:58:20.492Z,100625.75
2022-08-03T21:00:51.464Z,100621.69
2022-08-03T21:03:18.896Z,100627.13
2022-08-03T21:05:48.250Z,100629.88
2022-08-03T21:08:21.673Z,100612.44
2022-08-03T21:10:49.244Z,100628.22
2022-08-03T21:13:10.495Z,100565.41
2022-08-03T21:13:41.871Z,100628.09
2022-08-03T21:16:13.899Z,100623.25
2022-08-03T21:18:45.919Z,100624.72
2022-08-03T21:21:15.509Z,100627.28
2022-08-03T21:23:48.865Z,100589.06
2022-08-03T21:26:18.020Z,100611.72
2022-08-03T21:28:46.626Z,100604.59
2022-08-03T21:31:14.125Z,100615.66
2022-08-03T21:33:47.110Z,100613.41
2022-08-03T21:36:14.658Z,100599.47
2022-08-03T21:38:41.887Z,100616.06
2022-08-03T21:41:08.866Z,100612.53
2022-08-03T21:43:35.445Z,100592.56
2022-08-03T21:46:04.896Z,100589.00
2022-08-03T21:48:37.574Z,100618.53
2022-08-03T21:51:05.772Z,100617.03
2022-08-03T21:54:02.978Z,100610.72
2022-08-03T21:56:21.877Z,100625.44
2022-08-03T21:58:56.399Z,100615.00
2022-08-03T22:01:26.706Z,100613.34
2022-08-03T22:03:54.809Z,100609.91
2022-08-03T22:06:27.628Z,100604.69
2022-08-03T22:08:54.592Z,100585.22
2022-08-03T22:11:21.638Z,100609.56
2022-08-03T22:13:48.380Z,100602.06
2022-08-03T22:16:15.621Z,100606.41
2022-08-03T22:18:44.472Z,100587.22
2022-08-03T22:21:13.083Z,100600.19
2022-08-03T22:23:50.904Z,100608.38
2022-08-03T22:26:34.729Z,100610.44
2022-08-03T22:29:06.539Z,100613.16
2022-08-03T22:31:58.837Z,100605.66
2022-08-03T22:34:26.551Z,100570.88
2022-08-03T22:36:57.339Z,100612.16
2022-08-03T22:39:28.824Z,100582.53
2022-08-03T22:41:58.884Z,100621.06
2022-08-03T22:44:27.064Z,100624.63
2022-08-03T22:46:53.724Z,100619.56
2022-08-03T22:49:20.811Z,100622.28
2022-08-03T22:51:47.534Z,100615.28
2022-08-03T22:54:14.595Z,100616.53
2022-08-03T22:56:41.424Z,100594.31
2022-08-03T22:59:39.990Z,100614.53
2022-08-03T23:01:56.748Z,100617.81
2022-08-03T23:04:24.460Z,100602.28
2022-08-03T23:06:51.669Z,100617.16
2022-08-03T23:09:19.489Z,100589.50
2022-08-03T23:11:46.725Z,100622.53
2022-08-03T23:14:15.324Z,100616.59
2022-08-03T23:16:44.002Z,100618.25
2022-08-03T23:19:17.288Z,100615.44
2022-08-03T23:22:03.221Z,100606.97
2022-08-03T23:24:33.661Z,100610.16
2022-08-03T23:27:03.019Z,100598.16
2022-08-03T23:29:30.581Z,100586.22
2022-08-03T23:31:59.469Z,100607.16
2022-08-03T23:34:45.641Z,100596.31
2022-08-03T23:37:15.808Z,100602.84
2022-08-03T23:39:47.141Z,100584.28
2022-08-03T23:42:16.999Z,100581.34
2022-08-03T23:44:44.610Z,100615.31
2022-08-03T23:47:14.367Z,100603.72
2022-08-03T23:49:41.047Z,100608.09
2022-08-03T23:52:45.309Z,100612.41
2022-08-03T23:55:39.296Z,100615.00
2022-08-03T23:58:15.256Z,100572.28
